createdAt,value
2022-12-18T00:04:28.743Z,20.96
2022-12-18T00:09:50.594Z,20.74
2022-12-18T00:15:12.235Z,20.54
2022-12-18T00:20:38.652Z,20.40
2022-12-18T00:26:06.242Z,20.22
2022-12-18T00:31:28.077Z,20.07
2022-12-18T00:36:50.094Z,19.91
2022-12-18T00:42:38.262Z,19.76
2022-12-18T00:47:59.936Z,19.58
2022-12-18T00:53:22.208Z,19.48
2022-12-18T00:58:43.889Z,19.35
2022-12-18T01:04:05.572Z,19.25
2022-12-18T01:09:27.490Z,19.16
2022-12-18T01:14:49.269Z,19.02
2022-12-18T01:20:12.988Z,18.91
2022-12-18T01:25:37.238Z,18.83
2022-12-18T01:30:58.949Z,18.76
2022-12-18T01:36:31.170Z,18.68
2022-12-18T01:42:04.632Z,18.61
2022-12-18T01:47:31.426Z,18.56
2022-12-18T01:52:56.925Z,18.49
2022-12-18T01:58:20.759Z,18.42
2022-12-18T02:03:46.249Z,18.35
2022-12-18T02:09:20.095Z,18.30
2022-12-18T02:14:52.650Z,18.23
2022-12-18T02:20:37.109Z,18.18
2022-12-18T02:25:59.060Z,18.11
2022-12-18T02:31:28.454Z,18.08
2022-12-18T02:36:52.524Z,18.03
2022-12-18T02:42:14.902Z,17.97
2022-12-18T02:47:40.066Z,17.94
2022-12-18T02:53:16.080Z,17.87
2022-12-18T02:58:56.256Z,17.82
2022-12-18T03:05:10.422Z,17.78
2022-12-18T03:10:36.516Z,17.74
2022-12-18T03:16:01.026Z,17.70
2022-12-18T03:21:29.223Z,17.67
2022-12-18T03:26:55.327Z,17.66
2022-12-18T03:32:46.362Z,17.62
2022-12-18T03:38:09.037Z,17.56
2022-12-18T03:43:57.810Z,17.51
2022-12-18T03:50:00.632Z,17.48
2022-12-18T03:55:25.558Z,17.44
2022-12-18T04:00:51.123Z,17.42
2022-12-18T04:06:13.520Z,17.38
2022-12-18T04:11:35.343Z,17.37
2022-12-18T04:16:57.067Z,17.34
2022-12-18T04:22:18.932Z,17.32
2022-12-18T04:27:40.626Z,17.30
2022-12-18T04:33:02.321Z,17.24
2022-12-18T04:38:24.030Z,17.21
2022-12-18T04:43:45.758Z,17.19
2022-12-18T04:49:07.523Z,17.17
2022-12-18T04:54:29.172Z,17.16
2022-12-18T04:59:50.889Z,17.13
2022-12-18T05:05:12.750Z,17.10
2022-12-18T05:10:38.083Z,17.08
2022-12-18T05:16:00.308Z,17.05
2022-12-18T05:21:22.013Z,17.04
2022-12-18T05:26:43.705Z,17.01
2022-12-18T05:32:05.604Z,16.98
2022-12-18T05:37:27.290Z,16.96
2022-12-18T05:42:48.950Z,16.92
2022-12-18T05:48:12.780Z,16.91
2022-12-18T05:53:34.828Z,16.89
2022-12-18T05:58:56.521Z,16.87
2022-12-18T06:04:18.219Z,16.85
2022-12-18T06:09:39.888Z,16.83
2022-12-18T06:15:01.928Z,16.82
2022-12-18T06:20:24.700Z,16.78
2022-12-18T06:25:47.796Z,16.77
2022-12-18T06:31:10.447Z,16.74
2022-12-18T06:36:32.261Z,16.74
2022-12-18T06:41:53.942Z,16.90
2022-12-18T06:47:15.845Z,17.47
2022-12-18T06:52:38.047Z,18.20
2022-12-18T06:57:59.697Z,18.82
2022-12-18T07:03:21.460Z,19.42
2022-12-18T07:08:43.471Z,19.93
2022-12-18T07:14:05.183Z,20.13
2022-12-18T07:19:26.939Z,20.14
2022-12-18T07:24:48.601Z,20.01
2022-12-18T07:30:11.047Z,19.82
2022-12-18T07:35:34.331Z,19.60
2022-12-18T07:41:01.065Z,19.37
2022-12-18T07:46:23.653Z,19.17
2022-12-18T07:51:50.095Z,18.99
2022-12-18T07:57:27.349Z,18.82
2022-12-18T08:02:54.491Z,18.66
2022-12-18T08:08:16.343Z,18.55
2022-12-18T08:13:38.443Z,18.55
2022-12-18T08:19:00.407Z,18.64
2022-12-18T08:24:22.125Z,19.01
2022-12-18T08:29:43.856Z,19.53
2022-12-18T08:35:06.039Z,19.85
2022-12-18T08:40:27.764Z,19.75
2022-12-18T08:45:49.598Z,19.57
2022-12-18T08:51:11.373Z,19.45
2022-12-18T08:56:34.147Z,19.44
2022-12-18T09:01:56.575Z,19.53
2022-12-18T09:07:18.463Z,19.64
2022-12-18T09:12:40.193Z,19.75
2022-12-18T09:18:01.886Z,19.94
2022-12-18T09:23:23.624Z,20.09
2022-12-18T09:28:45.309Z,20.25
2022-12-18T09:34:07.127Z,20.39
2022-12-18T09:39:28.870Z,20.58
2022-12-18T09:44:54.457Z,20.70
2022-12-18T09:50:19.192Z,20.78
2022-12-18T09:55:43.955Z,20.85
2022-12-18T10:01:22.829Z,20.90
2022-12-18T10:06:56.114Z,20.96
2022-12-18T10:12:41.664Z,21.03
2022-12-18T10:18:29.317Z,21.02
2022-12-18T10:24:20.495Z,20.98
2022-12-18T10:29:44.986Z,20.88
2022-12-18T10:35:18.918Z,20.73
2022-12-18T10:41:19.680Z,20.56
2022-12-18T10:46:43.797Z,20.46
2022-12-18T10:52:17.144Z,20.42
2022-12-18T10:57:42.656Z,20.36
2022-12-18T11:03:24.323Z,20.25
2022-12-18T11:09:09.341Z,20.14
2022-12-18T11:14:47.180Z,20.02
2022-12-18T11:20:37.623Z,19.89
2022-12-18T11:26:05.265Z,19.76
2022-12-18T11:31:29.998Z,19.60
2022-12-18T11:36:52.140Z,19.47
2022-12-18T11:42:21.639Z,19.35
2022-12-18T11:48:23.859Z,19.24
2022-12-18T11:53:45.484Z,19.12
2022-12-18T11:59:28.598Z,19.05
2022-12-18T12:05:15.208Z,18.99
2022-12-18T12:11:17.398Z,18.93
2022-12-18T12:16:58.470Z,18.88
2022-12-18T12:22:22.893Z,18.85
2022-12-18T12:27:56.046Z,18.81
2022-12-18T12:33:49.285Z,18.77
2022-12-18T12:39:19.243Z,18.72
2022-12-18T12:44:51.364Z,18.69
2022-12-18T12:50:20.202Z,18.65
2022-12-18T12:55:43.564Z,18.63
2022-12-18T13:01:05.266Z,18.61
2022-12-18T13:06:44.390Z,18.61
2022-12-18T13:12:30.693Z,18.59
2022-12-18T13:18:16.359Z,18.58
2022-12-18T13:23:39.113Z,18.57
2022-12-18T13:29:03.172Z,18.57
2022-12-18T13:34:29.400Z,18.54
2022-12-18T13:39:51.595Z,18.54
2022-12-18T13:45:50.600Z,18.57
2022-12-18T13:51:17.847Z,18.58
2022-12-18T13:56:45.419Z,18.59
2022-12-18T14:02:13.252Z,18.59
2022-12-18T14:07:45.105Z,18.54
2022-12-18T14:13:12.417Z,18.51
2022-12-18T14:18:50.128Z,18.49
2022-12-18T14:24:21.171Z,18.50
2022-12-18T14:29:45.155Z,18.49
2022-12-18T14:35:14.676Z,18.51
2022-12-18T14:40:36.484Z,18.50
2022-12-18T14:45:58.862Z,18.51
2022-12-18T14:51:23.186Z,18.53
2022-12-18T14:56:48.356Z,18.55
2022-12-18T15:02:29.119Z,18.58
2022-12-18T15:07:53.755Z,18.62
2022-12-18T15:13:25.887Z,18.65
2022-12-18T15:18:49.131Z,18.64
2022-12-18T15:24:28.399Z,18.66
2022-12-18T15:30:08.968Z,18.70
2022-12-18T15:35:30.616Z,18.69
2022-12-18T15:40:53.693Z,18.71
2022-12-18T15:46:18.268Z,18.73
2022-12-18T15:51:40.184Z,18.74
2022-12-18T15:57:20.513Z,18.78
2022-12-18T16:02:42.348Z,18.79
2022-12-18T16:08:04.356Z,18.81
2022-12-18T16:13:26.049Z,18.86
2022-12-18T16:18:47.700Z,18.88
2022-12-18T16:24:31.049Z,18.95
2022-12-18T16:29:52.984Z,18.94
2022-12-18T16:35:16.986Z,18.97
2022-12-18T16:40:59.062Z,18.99
2022-12-18T16:46:20.795Z,19.00
2022-12-18T16:51:43.688Z,19.02
2022-12-18T16:57:05.668Z,19.03
2022-12-18T17:02:28.213Z,19.03
2022-12-18T17:07:50.141Z,19.04
2022-12-18T17:13:11.880Z,19.01
2022-12-18T17:18:34.162Z,18.95
2022-12-18T17:23:56.078Z,18.88
2022-12-18T17:29:20.483Z,18.80
2022-12-18T17:34:44.372Z,18.69
2022-12-18T17:40:06.941Z,18.64
2022-12-18T17:45:28.784Z,18.77
2022-12-18T17:50:50.539Z,19.23
2022-12-18T17:56:17.347Z,19.83
2022-12-18T18:01:44.410Z,20.34
2022-12-18T18:07:06.820Z,20.72
2022-12-18T18:12:47.315Z,21.03
2022-12-18T18:18:09.131Z,21.34
2022-12-18T18:23:33.780Z,21.47
2022-12-18T18:28:55.921Z,21.59
2022-12-18T18:34:26.101Z,21.68
2022-12-18T18:39:47.803Z,21.64
2022-12-18T18:45:10.186Z,21.47
2022-12-18T18:50:31.992Z,21.30
2022-12-18T18:56:17.506Z,21.13
2022-12-18T19:01:35.669Z,20.95
2022-12-18T19:06:57.468Z,20.74
2022-12-18T19:12:39.117Z,20.57
2022-12-18T19:18:02.369Z,20.38
2022-12-18T19:23:25.149Z,20.23
2022-12-18T19:28:48.486Z,20.06
2022-12-18T19:34:12.107Z,19.91
2022-12-18T19:39:33.829Z,19.79
2022-12-18T19:44:55.542Z,19.63
2022-12-18T19:50:17.370Z,19.55
2022-12-18T19:55:42.577Z,19.50
2022-12-18T20:01:06.833Z,19.57
2022-12-18T20:06:51.586Z,19.99
2022-12-18T20:12:13.458Z,20.48
2022-12-18T20:17:35.287Z,20.78
2022-12-18T20:22:57.081Z,20.96
2022-12-18T20:28:18.849Z,20.98
2022-12-18T20:33:42.128Z,21.03
2022-12-18T20:39:06.393Z,21.08
2022-12-18T20:44:28.317Z,21.15
2022-12-18T20:49:50.026Z,21.19
2022-12-18T20:55:11.829Z,21.16
2022-12-18T21:00:33.585Z,21.15
2022-12-18T21:05:55.264Z,21.17
2022-12-18T21:11:38.369Z,21.17
2022-12-18T21:17:02.955Z,21.08
2022-12-18T21:22:25.432Z,20.92
2022-12-18T21:27:47.458Z,20.75
2022-12-18T21:33:09.232Z,20.59
2022-12-18T21:38:30.911Z,20.49
2022-12-18T21:44:07.885Z,20.37
2022-12-18T21:49:29.883Z,20.26
2022-12-18T21:54:51.599Z,20.13
2022-12-18T22:00:19.203Z,20.03
2022-12-18T22:05:41.379Z,19.88
2022-12-18T22:11:03.276Z,19.76
2022-12-18T22:16:25.149Z,19.60
2022-12-18T22:21:49.117Z,19.46
2022-12-18T22:27:10.828Z,19.34
2022-12-18T22:32:36.259Z,19.23
2022-12-18T22:38:01.470Z,19.13
2022-12-18T22:43:23.126Z,19.03
2022-12-18T22:48:45.225Z,18.96
2022-12-18T22:54:07.004Z,18.89
2022-12-18T22:59:28.708Z,18.81
2022-12-18T23:04:50.425Z,18.75
2022-12-18T23:10:12.119Z,18.68
2022-12-18T23:15:33.798Z,18.62
2022-12-18T23:20:55.463Z,18.56
2022-12-18T23:26:21.283Z,18.52
2022-12-18T23:31:43.068Z,18.46
2022-12-18T23:37:04.867Z,18.44
2022-12-18T23:42:26.524Z,18.40
2022-12-18T23:47:51.002Z,18.36
2022-12-18T23:53:13.086Z,18.31
2022-12-18T23:58:36.434Z,18.25
